logo
App data

Brain Spa

Welcome to the Brain Spa, a place where you can learn to maximize your memory, improve your perception abilities, power up your language aptitude, and fine tune your logical thinking skills! 8 different mini-games to play emphasizing four distinct categories of mental abilities: Memory, Perception, Logic, Language.
Store | Hub | SteamDB
Developer: Ubisoft Publisher: Ubisoft
Genre: Casual
Languages: English
Tags: Casual (20)
Category: Single-player, Multi-player, Co-op
Release date: Oct 10, 2008
Price: $9.99
Owners: 0 .. 20,000
Followers: 34
Peak concurrent players yesterday: 1

Steam Spy is still in beta, so expect major bugs.

Owners data:

Access restricted.

This feature is only available to users with special access rights. Sorry.

If you want to proceed, you need to register or log in first and then back Steam Spy on Patreon. Look for Indie or Pro pledge.

Don't forget to use the same email as on Steam Spy!

Audience in 2 weeks:

Access restricted.

This feature is only available to users with special access rights. Sorry.

If you want to proceed, you need to register or log in first and then back Steam Spy on Patreon. Look for Indie or Pro pledge.

Don't forget to use the same email as on Steam Spy!

Peak daily concurrent players:

CCU data courtesy of SteamDB. Used with permission.

Hourly concurrent players:

YouTube:

The views data is based on top 50 videos uploaded last week. Actual number of views might be more than the number shown.

The displayed number of videos uploaded yesterday is limited to 50, so if there were more videos uploaded, the number will still show 50.

If the game has commonly used word as its name (like "FEAR" or "Volume") its number of Youtube views might be wrong.

Games similar to this one:

# Game Release date
Price
Score rank
(Userscore / Metascore)
Owners
Players
Playtime (Median)
1 Puppy Dog: Jigsaw Puzzles Jul 19, 2016 $0.99100% (100%)20,000 .. 50,0000%00:00 (00:00)
2 Legends of Atlantis: Exodus Sep 3, 2015 $6.99N/A (N/A)0 .. 20,0000%00:00 (00:00)
3 Peggle Nights Oct 15, 2008 $4.9990% (94%/76%)200,000 .. 500,0001.02%00:28 (00:18)
4 Farm Frenzy 2 Feb 15, 2010 $4.99N/A (N/A)0 .. 20,0000%00:00 (00:00)
5 YOU DON’T KNOW JACK Feb 8, 2011 N/A84% (92%/71%)0 .. 20,0000%00:00 (00:00)
6 Chuzzle Deluxe Aug 30, 2006 $4.9984% (92%)50,000 .. 100,0000%00:00 (00:00)
7 Princess Maker 2 Refine Sep 28, 2016 $19.9984% (92%)20,000 .. 50,0000%00:00 (00:00)
8 Zuma Deluxe Aug 30, 2006 $4.9984% (92%)50,000 .. 100,0000%00:00 (00:00)
9 Gnomes Garden 2 May 18, 2016 $4.99N/A (N/A)20,000 .. 50,0000.56%11:46 (03:55)
10 Kitty Cat: Jigsaw Puzzles Jul 18, 2016 $0.9980% (91%)50,000 .. 100,0000%00:00 (00:00)
11 Hidden Object Bundle 4 in 1 Oct 6, 2015 $7.9980% (91%)20,000 .. 50,0001.69%00:27 (00:09)
12 Bejeweled 2 Deluxe Aug 30, 2006 $4.9977% (90%)50,000 .. 100,0000%00:00 (00:00)
13 Putt-Putt and Fatty Bear's Activity Pack May 15, 2014 $4.99N/A (N/A)20,000 .. 50,0000%00:00 (00:00)
14 Alice's Patchwork Mar 3, 2016 $4.9974% (89%)20,000 .. 50,0000%00:00 (00:00)
15 Puzzler World May 28, 2010 $4.9971% (88%)50,000 .. 100,0000%00:00 (00:00)
16 Luxor 3 Jun 10, 2008 $9.9971% (88%)20,000 .. 50,0000%00:00 (00:00)
17 Stikbold! A Dodgeball Adventure Apr 1, 2016 $9.9971% (88%)50,000 .. 100,0000%00:00 (00:00)
18 Shufflepuck Cantina Deluxe Dec 6, 2013 $9.9971% (88%)100,000 .. 200,0000.2%03:56 (01:18)
19 Mr Nibbles Forever Apr 29, 2016 $0.99N/A (N/A)0 .. 20,0000%00:00 (00:00)
20 Baseball Mogul 2015 Jul 24, 2015 $4.99N/A (N/A)20,000 .. 50,0000%00:00 (00:00)
21 Big Thinkers 1st Grade Aug 18, 2015 $6.99N/A (N/A)0 .. 20,0000%00:00 (00:00)
22 Brink of Consciousness: The Lonely Hearts Murders Nov 24, 2014 $9.9963% (85%)0 .. 20,0000%00:00 (00:00)
23 Among the Heavens Nov 6, 2015 $2.9963% (85%)50,000 .. 100,0000%00:00 (00:00)
24 Pretty Girls Panic! Dec 19, 2016 $1.9963% (85%)20,000 .. 50,0001.3%03:02 (01:00)
25 Space Codex May 17, 2016 $0.9961% (84%)100,000 .. 200,0000.35%00:36 (00:12)
26 Little Racers STREET Feb 6, 2014 $5.9961% (84%/62%)100,000 .. 200,0001.16%00:36 (00:46)
27 Hidden Object 6-in-1 bundle Mar 16, 2016 $11.9961% (84%)20,000 .. 50,0000%00:00 (00:00)
28 Cranky Cat Jun 5, 2013 $2.99N/A (N/A)0 .. 20,0000%00:00 (00:00)
29 BasketBelle Dec 9, 2014 $4.9958% (83%)0 .. 20,0000%00:00 (00:00)
30 Gnomes Garden Dec 18, 2015 $4.9958% (83%)50,000 .. 100,0000.38%11:45 (03:55)
31 My Riding Stables: Life with Horses Mar 27, 2014 $14.9958% (83%)0 .. 20,0000%00:00 (00:00)
32 Urban Trial Freestyle Sep 18, 2013 $6.9956% (82%/58%)100,000 .. 200,0000%00:00 (00:00)
33 Venice Deluxe Jun 25, 2007 $4.99N/A (N/A)20,000 .. 50,0000%00:00 (00:00)
34 Crash Dive Jul 6, 2015 $6.9951% (80%)0 .. 20,0000%00:00 (00:00)
35 Combat Wings: Battle of Britain Oct 14, 2009 $4.9951% (80%)100,000 .. 200,0000%00:00 (00:00)
36 Rotastic Oct 11, 2012 $9.99N/A (N/A)0 .. 20,0000%00:00 (00:00)
37 7 Wonders: Treasures of Seven Nov 14, 2008 $9.99N/A (N/A)20,000 .. 50,0000%00:00 (00:00)
38 The Wizard's Pen Feb 18, 2009 $4.99N/A (N/A)20,000 .. 50,0000%00:00 (00:00)
39 Mahjong Destiny Jun 17, 2016 $1.99N/A (N/A)50,000 .. 100,0000%00:00 (00:00)
40 Radial-G : Racing Revolved Mar 28, 2016 $9.9951% (80%)0 .. 20,0000%00:00 (00:00)
41 Virtual Villagers - The Secret City May 28, 2008 $9.99N/A (N/A)0 .. 20,0000%00:00 (00:00)
42 Crash Time 3 Nov 25, 2009 $5.9951% (80%)20,000 .. 50,0002%00:19 (00:06)
43 Qvadriga Jun 13, 2014 $19.9949% (79%/72%)20,000 .. 50,0000%00:00 (00:00)
44 Sea Legends: Phantasmal Light Collector's Edition Sep 17, 2014 $4.9949% (79%)50,000 .. 100,0000%00:00 (00:00)
45 Typer Shark! Deluxe Aug 30, 2006 $4.9945% (77%)20,000 .. 50,0000%00:00 (00:00)
46 Elementary My Dear Majesty! Apr 16, 2015 $0.9945% (77%)50,000 .. 100,0000%00:00 (00:00)
47 Mystery Case Files: Madame Fate Dec 14, 2007 $6.99N/A (N/A)0 .. 20,0000%00:00 (00:00)
48 Toilet Tycoon Sep 17, 2015 $4.9942% (75%)0 .. 20,0000%00:00 (00:00)
49 Runaway Express Mystery Sep 23, 2014 $6.99N/A (N/A)0 .. 20,0000%00:00 (00:00)
50 Pretty Girls Mahjong Solitaire Aug 24, 2015 $4.9942% (75%)20,000 .. 50,0000.85%03:02 (01:00)
51 Amazing Adventures Around the World Apr 15, 2009 $4.99N/A (N/A)20,000 .. 50,0000%00:00 (00:00)
52 Zombie Solitaire Jul 3, 2014 $8.9940% (74%)20,000 .. 50,0001.92%00:15 (00:05)
53 Home Design 3D Nov 20, 2015 $9.9940% (74%)20,000 .. 50,0002.68%05:42 (05:41)
54 Ski Region Simulator - Gold Edition Jan 31, 2014 $8.9938% (73%)20,000 .. 50,0000%00:00 (00:00)
55 Evolution Planet: Gold Edition Jul 7, 2016 $4.99N/A (N/A)0 .. 20,0000%00:00 (00:00)
56 StuntMANIA Reloaded Nov 13, 2014 $4.9936% (72%)20,000 .. 50,0000%00:00 (00:00)
57 Mystery P.I. - Lost in Los Angeles Jul 27, 2009 $4.99N/A (N/A)20,000 .. 50,0000%00:00 (00:00)
58 Football Mogul 2014 May 28, 2015 $0.99N/A (N/A)20,000 .. 50,0000%00:00 (00:00)
59 Mystery P.I. - The Lottery Ticket Oct 16, 2007 $4.99N/A (N/A)20,000 .. 50,0000%00:00 (00:00)
60 Diner Mania Jun 25, 2015 $3.99N/A (N/A)0 .. 20,0000%00:00 (00:00)
61 MiniDrivers Aug 31, 2015 $5.9931% (69%)20,000 .. 50,0000%00:00 (00:00)
62 Chocolatier: Decadence by Design Aug 12, 2009 $9.9930% (68%)0 .. 20,0000%00:00 (00:00)
63 Polaris Sector Mar 22, 2016 $39.9930% (68%/76%)0 .. 20,0000%00:00 (00:00)
64 Mystery P.I. - The Vegas Heist Jun 5, 2008 $4.99N/A (N/A)20,000 .. 50,0005.88%00:01 (00:00)
65 Luxor Jun 10, 2008 $9.99N/A (N/A)0 .. 20,0000%00:00 (00:00)
66 Pro Cycling Manager 2014 Jun 19, 2014 $9.9924% (64%)20,000 .. 50,0000%00:00 (00:00)
67 Castle: Never Judge a Book by its Cover Jun 9, 2014 N/A24% (64%)20,000 .. 50,0000%00:00 (00:00)
68 City Life 2008 Sep 29, 2008 $9.9924% (64%)20,000 .. 50,0000%00:00 (00:00)
69 PAC-MAN CHAMPIONSHIP EDITION 2 Sep 13, 2016 $12.9923% (63%)50,000 .. 100,0000.97%14:40 (04:53)
70 Bridge It + Nov 18, 2013 $6.99N/A (N/A)20,000 .. 50,0000%00:00 (00:00)
71 Solitaire Christmas. Match 2 Cards Dec 24, 2015 $4.99N/A (N/A)20,000 .. 50,0000.95%04:31 (03:00)
72 Aerofly FS 1 Flight Simulator Oct 17, 2012 $19.9922% (62%)0 .. 20,0000%00:00 (00:00)
73 Meridian: Age of Invention Sep 30, 2015 $2.9921% (61%)20,000 .. 50,0000%00:00 (00:00)
74 Air Conflicts: Secret Wars Sep 30, 2011 $5.9921% (61%/65%)50,000 .. 100,0000%00:00 (00:00)
75 Jane Angel: Templar Mystery Sep 17, 2014 $4.99N/A (N/A)20,000 .. 50,0000%00:00 (00:00)
76 Zooloretto Apr 3, 2014 $2.99N/A (N/A)0 .. 20,0000%00:00 (00:00)
77 Cities in Motion 2 Apr 2, 2013 $19.9917% (58%/72%)500,000 .. 1,000,0000.6%10:03 (17:00)
78 Hacker Evolution: Untold Sep 14, 2010 $4.9917% (58%)200,000 .. 500,0000.15%00:41 (00:13)
79 Riding Star - Horse Championship! Mar 27, 2014 $9.99N/A (N/A)0 .. 20,0000%00:00 (00:00)
80 Mystery P.I. - The New York Fortune Jan 28, 2009 $4.99N/A (N/A)20,000 .. 50,0000%00:00 (00:00)
81 Pacific Storm Allies Aug 18, 2008 $7.9913% (53%/60%)50,000 .. 100,0000%00:00 (00:00)
82 Speed Kills May 16, 2014 $9.9913% (52%)200,000 .. 500,0000.3%00:28 (00:18)
83 Poker Pretty Girls Battle: Texas Hold'em Oct 21, 2015 $9.9913% (52%)20,000 .. 50,0001.22%03:02 (01:00)
84 Luxor: Quest for the Afterlife Dec 15, 2008 $9.99N/A (N/A)20,000 .. 50,0000%00:00 (00:00)
85 Kumoon : Ballistic Physics Puzzle Nov 10, 2015 $2.9912% (51%)0 .. 20,0000%00:00 (00:00)
86 Ludo Supremo Jun 8, 2016 $1.9911% (50%)20,000 .. 50,0000%00:00 (00:00)
87 Firefighters 2014 May 21, 2014 $19.9911% (50%)50,000 .. 100,0000%00:00 (00:00)
88 300 Dwarves Jun 5, 2014 $6.9911% (49%)0 .. 20,0000%00:00 (00:00)
89 Shannon Tweed's Attack Of The Groupies Apr 1, 2014 $4.99N/A (N/A)0 .. 20,0000%00:00 (00:00)
90 EVEREST VR Aug 2, 2016 $9.9910% (47%)0 .. 20,0000%00:00 (00:00)
91 Lords of Football Apr 5, 2013 $14.999% (46%/52%)20,000 .. 50,0000%00:00 (00:00)
92 Transport Giant Sep 5, 2014 $9.999% (45%)100,000 .. 200,0000%00:00 (00:00)
93 Theme Park Studio Dec 2, 2016 $29.998% (44%)0 .. 20,0007.14%00:01 (00:00)
94 Luxor 2 Jun 10, 2008 $9.99N/A (N/A)0 .. 20,0000%00:00 (00:00)
95 Ship Simulator: Maritime Search and Rescue Jul 1, 2014 $17.997% (42%)20,000 .. 50,0007.69%00:31 (00:10)
96 Silent Hunter 5: Battle of the Atlantic Mar 2010 $9.997% (40%/62%)50,000 .. 100,0000%00:00 (00:00)
97 Echelon Jul 3, 2014 $3.996% (39%/70%)0 .. 20,0000%00:00 (00:00)
98 RECYCLE Sep 3, 2014 $9.996% (38%)20,000 .. 50,0000%00:00 (00:00)
99 Firefighters - The Simulation Aug 31, 2016 $14.99N/A (N/A)0 .. 20,0000%00:00 (00:00)
100 Industry Empire Jul 30, 2014 $19.994% (31%)20,000 .. 50,0000%00:00 (00:00)
101 Tetris Ultimate Dec 10, 2015 $14.993% (30%)0 .. 20,00015.38%01:51 (00:53)
102 G-Ball May 28, 2014 $0.992% (22%)0 .. 20,0000%00:00 (00:00)
103 Airline Tycoon 2 Oct 24, 2011 $9.992% (16%/57%)50,000 .. 100,0000%00:00 (00:00)
104 The Flying Dutchman Sep 12, 2014 $4.991% (3%)0 .. 20,0000%00:00 (00:00)
105 Nokori Mar 25, 2016 $1.99N/A (N/A)0 .. 20,0000%00:00 (00:00)
106 Them - The Summoning May 16, 2014 $4.99N/A (N/A)0 .. 20,0000%00:00 (00:00)
107 Discovery! A Seek and Find Adventure Jul 29, 2008 $9.99N/A (N/A)0 .. 20,0000%00:00 (00:00)
108 Fantastic 4 In A Row 2 Aug 15, 2016 $0.99N/A (N/A)50,000 .. 100,0000%00:00 (00:00)
109 Bayla Bunny Jun 13, 2016 $1.99N/A (N/A)50,000 .. 100,0000%00:00 (00:00)
110 Dessert Storm Oct 23, 2016 $0.99N/A (N/A)50,000 .. 100,0000.56%04:33 (01:31)
111 Bubble Blowout Oct 24, 2016 $0.99N/A (N/A)20,000 .. 50,0000%00:00 (00:00)
112 Barnyard Mahjong 3 Jul 29, 2016 $1.99N/A (N/A)50,000 .. 100,0000%00:00 (00:00)
113 Chainz 2: Relinked Jul 13, 2009 $9.99N/A (N/A)0 .. 20,0000%00:00 (00:00)
114 Rush for gold: California Mar 9, 2016 $3.99N/A (N/A)20,000 .. 50,0000%00:00 (00:00)
115 The Hidden Dragon Jul 26, 2016 $2.99N/A (N/A)0 .. 20,0000%00:00 (00:00)
116 Tropical Fish Shop 2 Mar 9, 2016 $3.99N/A (N/A)0 .. 20,0000%00:00 (00:00)

Tags over time:

Access restricted.

This feature is only available to users with special access rights. Sorry.

If you want to proceed, you need to register or log in first and then back Steam Spy on Patreon. Look for Indie or Pro pledge.

Don't forget to use the same email as on Steam Spy!

Owners of this game also own:

Access restricted.

This feature is only available to users with special access rights. Sorry.

If you want to proceed, you need to register or log in first and then back Steam Spy on Patreon. Look for Indie or Pro pledge.

Don't forget to use the same email as on Steam Spy!

Playtime distribution:

Access restricted.

This feature is only available to users with special access rights. Sorry.

If you want to proceed, you need to register or log in first and then back Steam Spy on Patreon. Look for Indie or Pro pledge.

Don't forget to use the same email as on Steam Spy!

Playtime (2 weeks):

Access restricted.

This feature is only available to users with special access rights. Sorry.

If you want to proceed, you need to register or log in first and then back Steam Spy on Patreon. Look for Indie or Pro pledge.

Don't forget to use the same email as on Steam Spy!

User reviews:

Login required.

Please register or log in to see this information.